createdAt,value
2019-03-25T00:01:31.608Z,6.70
2019-03-25T00:04:01.757Z,6.70
2019-03-25T00:06:31.832Z,6.70
2019-03-25T00:09:05.272Z,6.70
2019-03-25T00:11:33.732Z,6.60
2019-03-25T00:14:04.495Z,6.60
2019-03-25T00:16:41.721Z,6.60
2019-03-25T00:19:18.797Z,6.60
2019-03-25T00:21:53.777Z,6.60
2019-03-25T00:24:23.947Z,6.50
2019-03-25T00:26:54.995Z,6.50
2019-03-25T00:29:26.024Z,6.50
2019-03-25T00:31:56.119Z,6.50
2019-03-25T00:34:27.217Z,6.50
2019-03-25T00:36:57.319Z,6.50
2019-03-25T00:39:28.359Z,6.40
2019-03-25T00:41:58.446Z,6.40
2019-03-25T00:44:28.540Z,6.40
2019-03-25T00:47:00.576Z,6.40
2019-03-25T00:49:30.681Z,6.40
2019-03-25T00:52:00.783Z,6.40
2019-03-25T00:54:34.999Z,6.40
2019-03-25T00:57:07.071Z,6.40
2019-03-25T00:59:37.183Z,6.40
2019-03-25T01:02:07.267Z,6.40
2019-03-25T01:04:39.339Z,6.50
2019-03-25T01:07:09.427Z,6.50
2019-03-25T01:09:39.559Z,6.50
2019-03-25T01:12:11.571Z,6.50
2019-03-25T01:14:45.243Z,6.50
2019-03-25T01:17:21.452Z,6.40
2019-03-25T01:19:51.571Z,6.40
2019-03-25T01:22:23.651Z,6.40
2019-03-25T01:25:01.932Z,6.30
2019-03-25T01:27:27.456Z,6.20
2019-03-25T01:30:11.480Z,6.10
2019-03-25T01:32:41.584Z,6.00
2019-03-25T01:35:11.811Z,5.90
2019-03-25T01:37:44.911Z,5.70
2019-03-25T01:40:19.449Z,5.60
2019-03-25T01:42:50.465Z,5.50
2019-03-25T01:45:22.527Z,5.50
2019-03-25T01:47:52.647Z,5.40
2019-03-25T01:50:26.767Z,5.40
2019-03-25T01:52:57.823Z,5.40
2019-03-25T01:55:33.867Z,5.40
2019-03-25T01:58:04.023Z,5.40
2019-03-25T02:00:34.271Z,5.50
2019-03-25T02:03:06.297Z,5.50
2019-03-25T02:05:37.318Z,5.40
2019-03-25T02:08:07.431Z,5.40
2019-03-25T02:10:43.596Z,5.30
2019-03-25T02:13:13.681Z,5.30
2019-03-25T02:15:43.753Z,5.30
2019-03-25T02:18:13.911Z,5.30
2019-03-25T02:20:50.033Z,5.30
2019-03-25T02:23:20.143Z,5.30
2019-03-25T02:25:50.243Z,5.30
2019-03-25T02:28:20.451Z,5.30
2019-03-25T02:30:50.576Z,5.30
2019-03-25T02:33:21.223Z,5.30
2019-03-25T02:36:00.409Z,5.30
2019-03-25T02:38:32.410Z,5.30
2019-03-25T02:41:18.919Z,5.30
2019-03-25T02:43:58.251Z,5.20
2019-03-25T02:46:28.372Z,5.30
2019-03-25T02:48:58.463Z,5.30
2019-03-25T02:51:29.532Z,5.30
2019-03-25T02:54:00.512Z,5.30
2019-03-25T02:56:31.624Z,5.30
2019-03-25T02:59:08.008Z,5.30
2019-03-25T03:01:38.100Z,5.30
2019-03-25T03:04:10.190Z,5.30
2019-03-25T03:06:58.596Z,5.30
2019-03-25T03:09:33.659Z,5.40
2019-03-25T03:12:04.684Z,5.30
2019-03-25T03:14:36.744Z,5.30
2019-03-25T03:17:09.500Z,5.20
2019-03-25T03:19:46.391Z,5.20
2019-03-25T03:22:16.469Z,5.20
2019-03-25T03:24:48.500Z,5.20
2019-03-25T03:27:18.593Z,5.20
2019-03-25T03:29:52.233Z,5.10
2019-03-25T03:32:32.551Z,5.00
2019-03-25T03:35:06.962Z,4.80
2019-03-25T03:37:41.084Z,4.60
2019-03-25T03:40:11.547Z,4.40
2019-03-25T03:42:47.556Z,4.30
2019-03-25T03:45:20.328Z,4.20
2019-03-25T03:47:56.964Z,4.00
2019-03-25T03:50:34.173Z,3.80
2019-03-25T03:53:07.083Z,3.70
2019-03-25T03:55:52.895Z,3.60
2019-03-25T03:58:26.117Z,3.50
2019-03-25T04:00:58.146Z,3.50
2019-03-25T04:03:28.227Z,3.30
2019-03-25T04:05:58.310Z,3.30
2019-03-25T04:08:28.395Z,3.20
2019-03-25T04:10:59.589Z,3.20
2019-03-25T04:13:29.670Z,3.10
2019-03-25T04:16:01.498Z,3.10
2019-03-25T04:18:31.575Z,3.10
2019-03-25T04:21:01.675Z,3.10
2019-03-25T04:23:31.797Z,3.10
2019-03-25T04:26:01.926Z,3.10
2019-03-25T04:28:36.393Z,3.10
2019-03-25T04:31:06.443Z,3.20
2019-03-25T04:33:41.283Z,3.30
2019-03-25T04:36:13.515Z,3.30
2019-03-25T04:38:52.652Z,3.40
2019-03-25T04:41:22.758Z,3.40
2019-03-25T04:43:55.853Z,3.40
2019-03-25T04:46:39.002Z,3.40
2019-03-25T04:49:09.109Z,3.30
2019-03-25T04:51:41.173Z,3.20
2019-03-25T04:54:11.291Z,3.20
2019-03-25T04:56:47.671Z,3.00
2019-03-25T04:59:32.165Z,2.90
2019-03-25T05:02:08.067Z,2.70
2019-03-25T05:04:38.162Z,2.60
2019-03-25T05:07:10.278Z,2.50
2019-03-25T05:09:40.374Z,2.50
2019-03-25T05:12:12.417Z,2.50
2019-03-25T05:14:50.623Z,2.40
2019-03-25T05:17:26.687Z,2.50
2019-03-25T05:19:57.853Z,2.50
2019-03-25T05:22:27.935Z,2.40
2019-03-25T05:24:59.011Z,2.20
2019-03-25T05:27:37.014Z,2.20
2019-03-25T05:30:08.817Z,2.10
2019-03-25T05:32:47.985Z,2.10
2019-03-25T05:35:18.083Z,2.00
2019-03-25T05:37:48.207Z,2.00
2019-03-25T05:40:18.327Z,2.10
2019-03-25T05:42:48.475Z,2.10
2019-03-25T05:45:18.555Z,2.10
2019-03-25T05:47:48.680Z,2.10
2019-03-25T05:50:25.756Z,2.10
2019-03-25T05:52:56.888Z,2.10
2019-03-25T05:55:26.959Z,2.10
2019-03-25T05:57:58.039Z,2.20
2019-03-25T06:00:29.791Z,2.20
2019-03-25T06:02:59.880Z,2.20
2019-03-25T06:05:29.979Z,2.30
2019-03-25T06:08:00.063Z,2.40
2019-03-25T06:10:33.199Z,2.50
2019-03-25T06:13:04.225Z,2.70
2019-03-25T06:15:34.296Z,2.80
2019-03-25T06:18:06.532Z,2.90
2019-03-25T06:20:44.435Z,3.00
2019-03-25T06:23:14.596Z,3.10
2019-03-25T06:25:46.821Z,3.20
2019-03-25T06:28:16.939Z,3.40
2019-03-25T06:30:47.647Z,3.50
2019-03-25T06:33:19.739Z,3.60
2019-03-25T06:35:49.849Z,3.80
2019-03-25T06:38:19.989Z,3.90
2019-03-25T06:40:50.144Z,3.90
2019-03-25T06:43:23.243Z,4.00
2019-03-25T06:45:55.373Z,4.10
2019-03-25T06:48:25.447Z,4.30
2019-03-25T06:50:55.551Z,4.50
2019-03-25T06:53:25.625Z,4.60
2019-03-25T06:55:57.667Z,4.70
2019-03-25T06:58:29.695Z,4.80
2019-03-25T07:01:02.971Z,5.00
2019-03-25T07:03:36.315Z,5.20
2019-03-25T07:06:08.357Z,5.30
2019-03-25T07:08:39.430Z,5.60
2019-03-25T07:11:11.282Z,5.80
2019-03-25T07:13:41.459Z,5.80
2019-03-25T07:16:14.207Z,6.00
2019-03-25T07:18:44.309Z,6.10
2019-03-25T07:21:14.391Z,6.40
2019-03-25T07:23:45.423Z,6.80
2019-03-25T07:26:16.495Z,6.80
2019-03-25T07:28:46.595Z,6.90
2019-03-25T07:31:16.687Z,7.20
2019-03-25T07:33:57.640Z,7.50
2019-03-25T07:36:27.718Z,7.60
2019-03-25T07:39:06.275Z,7.80
2019-03-25T07:41:36.351Z,7.80
2019-03-25T07:44:12.691Z,7.80
2019-03-25T07:46:42.807Z,8.00
2019-03-25T07:49:15.901Z,7.50
2019-03-25T07:51:45.986Z,7.90
2019-03-25T07:54:16.676Z,8.50
2019-03-25T07:56:53.548Z,8.90
2019-03-25T07:59:24.595Z,8.90
2019-03-25T08:01:55.621Z,8.90
2019-03-25T08:04:40.814Z,9.20
2019-03-25T08:07:14.413Z,9.30
2019-03-25T08:09:44.511Z,9.30
2019-03-25T08:12:20.602Z,9.60
2019-03-25T08:14:50.808Z,9.50
2019-03-25T08:17:20.895Z,9.30
2019-03-25T08:19:50.975Z,10.00
2019-03-25T08:22:22.995Z,9.90
2019-03-25T08:24:54.122Z,10.00
2019-03-25T08:27:25.181Z,10.20
2019-03-25T08:29:56.214Z,9.70
2019-03-25T08:32:32.380Z,8.80
2019-03-25T08:35:02.580Z,8.20
2019-03-25T08:37:34.552Z,7.80
2019-03-25T08:40:07.309Z,7.80
2019-03-25T08:42:37.404Z,7.80
2019-03-25T08:45:10.520Z,7.60
2019-03-25T08:47:40.652Z,7.60
2019-03-25T08:50:10.996Z,7.50
2019-03-25T08:52:45.088Z,7.40
2019-03-25T08:55:16.128Z,7.00
2019-03-25T08:57:46.207Z,6.90
2019-03-25T09:00:17.432Z,6.70
2019-03-25T09:02:56.548Z,6.20
2019-03-25T09:05:26.677Z,5.80
2019-03-25T09:07:59.731Z,5.60
2019-03-25T09:10:30.696Z,5.60
2019-03-25T09:13:01.740Z,5.90
2019-03-25T09:15:32.740Z,6.50
2019-03-25T09:18:05.144Z,6.90
2019-03-25T09:20:35.308Z,6.80
2019-03-25T09:23:05.455Z,6.50
2019-03-25T09:25:37.078Z,6.30
2019-03-25T09:28:08.066Z,6.10
2019-03-25T09:30:58.884Z,5.90
2019-03-25T09:33:29.245Z,5.60
2019-03-25T09:35:59.420Z,5.30
2019-03-25T09:38:30.604Z,5.00
2019-03-25T09:41:00.688Z,4.80
2019-03-25T09:43:30.868Z,4.80
2019-03-25T09:46:01.867Z,4.80
2019-03-25T09:48:31.943Z,5.10
2019-03-25T09:51:02.060Z,5.70
2019-03-25T09:53:34.143Z,6.00
2019-03-25T09:56:04.371Z,6.20
2019-03-25T09:58:36.812Z,6.30
2019-03-25T10:01:06.863Z,6.40
2019-03-25T10:03:36.959Z,6.60
2019-03-25T10:06:09.083Z,6.90
2019-03-25T10:08:41.045Z,6.90
2019-03-25T10:11:11.213Z,7.00
2019-03-25T10:13:41.357Z,7.30
2019-03-25T10:16:11.459Z,8.00
2019-03-25T10:18:41.556Z,7.90
2019-03-25T10:21:11.692Z,7.40
2019-03-25T10:23:43.902Z,7.00
2019-03-25T10:26:14.023Z,6.90
2019-03-25T10:28:48.817Z,7.10
2019-03-25T10:31:17.416Z,7.00
2019-03-25T10:33:47.703Z,7.00
2019-03-25T10:36:17.852Z,6.90
2019-03-25T10:38:47.951Z,6.70
2019-03-25T10:41:18.143Z,6.50
2019-03-25T10:43:48.299Z,6.00
2019-03-25T10:46:18.363Z,5.60
2019-03-25T10:48:49.496Z,5.30
2019-03-25T10:51:29.592Z,4.90
2019-03-25T10:53:59.686Z,4.70
2019-03-25T10:56:36.475Z,4.30
2019-03-25T10:59:10.623Z,4.10
2019-03-25T11:01:40.716Z,3.90
2019-03-25T11:04:10.795Z,3.80
2019-03-25T11:06:40.887Z,4.00
2019-03-25T11:09:11.031Z,4.10
2019-03-25T11:11:42.131Z,3.80
2019-03-25T11:14:12.269Z,3.50
2019-03-25T11:16:43.257Z,3.40
2019-03-25T11:19:13.367Z,3.30
2019-03-25T11:21:43.447Z,3.20
2019-03-25T11:24:15.238Z,2.80
2019-03-25T11:26:45.495Z,2.80
2019-03-25T11:29:15.575Z,3.20
2019-03-25T11:31:45.741Z,4.10
2019-03-25T11:34:16.772Z,4.00
2019-03-25T11:36:46.871Z,3.70
2019-03-25T11:39:16.963Z,3.90
2019-03-25T11:41:47.108Z,4.70
2019-03-25T11:44:17.237Z,5.90
2019-03-25T11:46:47.327Z,6.70
2019-03-25T11:49:17.415Z,6.40
2019-03-25T11:51:47.518Z,6.40
2019-03-25T11:54:18.523Z,6.30
2019-03-25T11:56:48.591Z,6.00
2019-03-25T11:59:19.110Z,5.90
2019-03-25T12:01:49.139Z,5.60
2019-03-25T12:04:20.278Z,5.80
2019-03-25T12:06:50.359Z,6.50
2019-03-25T12:09:20.452Z,7.40
2019-03-25T12:11:50.558Z,8.40
2019-03-25T12:14:20.655Z,9.20
2019-03-25T12:16:50.753Z,8.50
2019-03-25T12:19:20.833Z,9.90
2019-03-25T12:21:51.059Z,8.70
2019-03-25T12:24:21.144Z,7.30
2019-03-25T12:26:51.263Z,6.60
2019-03-25T12:29:29.607Z,8.70
2019-03-25T12:31:53.135Z,11.30
2019-03-25T12:34:30.342Z,12.30
2019-03-25T12:37:03.467Z,11.40
2019-03-25T12:39:33.571Z,9.80
2019-03-25T12:42:03.828Z,9.70
2019-03-25T12:44:33.916Z,11.10
2019-03-25T12:47:04.183Z,10.70
2019-03-25T12:49:34.284Z,9.60
2019-03-25T12:52:04.343Z,6.70
2019-03-25T12:54:43.659Z,4.50
2019-03-25T12:57:13.812Z,3.50
2019-03-25T12:59:48.005Z,2.70
2019-03-25T13:02:24.000Z,2.40
2019-03-25T13:04:54.235Z,2.10
2019-03-25T13:07:31.663Z,1.70
2019-03-25T13:10:12.468Z,1.60
2019-03-25T13:12:42.548Z,1.70
2019-03-25T13:15:18.735Z,1.80
2019-03-25T13:17:50.814Z,2.10
2019-03-25T13:20:23.555Z,2.40
2019-03-25T13:22:54.631Z,2.80
2019-03-25T13:25:27.369Z,5.00
2019-03-25T13:27:57.459Z,7.40
2019-03-25T13:30:29.502Z,9.70
2019-03-25T13:32:59.611Z,12.00
2019-03-25T13:35:31.583Z,12.60
2019-03-25T13:38:03.575Z,14.20
2019-03-25T13:40:35.675Z,16.30
2019-03-25T13:43:11.591Z,16.30
2019-03-25T13:45:41.674Z,17.10
2019-03-25T13:48:12.707Z,15.50
2019-03-25T13:50:42.823Z,14.00
2019-03-25T13:53:15.915Z,11.20
2019-03-25T13:55:47.003Z,9.30
2019-03-25T13:58:17.101Z,7.90
2019-03-25T14:00:47.183Z,6.00
2019-03-25T14:03:19.247Z,5.70
2019-03-25T14:05:50.239Z,6.40
2019-03-25T14:08:21.271Z,6.50
2019-03-25T14:10:51.423Z,7.20
2019-03-25T14:13:21.499Z,8.00
2019-03-25T14:15:58.279Z,9.00
2019-03-25T14:18:34.115Z,10.80
2019-03-25T14:21:04.263Z,10.50
2019-03-25T14:23:34.340Z,12.20
2019-03-25T14:26:04.431Z,14.00
2019-03-25T14:28:35.456Z,15.60
2019-03-25T14:31:11.507Z,15.30
2019-03-25T14:33:41.604Z,13.00
2019-03-25T14:36:11.683Z,11.80
2019-03-25T14:38:43.772Z,11.10
2019-03-25T14:41:19.723Z,9.30
2019-03-25T14:43:51.831Z,8.10
2019-03-25T14:46:21.891Z,6.50
2019-03-25T14:48:52.951Z,5.30
2019-03-25T14:51:23.979Z,4.30
2019-03-25T14:53:55.055Z,3.70
2019-03-25T14:56:31.425Z,3.50
2019-03-25T14:59:01.791Z,3.40
2019-03-25T15:01:33.879Z,3.40
2019-03-25T15:04:04.847Z,3.30
2019-03-25T15:06:34.928Z,3.30
2019-03-25T15:09:10.659Z,3.30
2019-03-25T15:11:43.330Z,3.20
2019-03-25T15:14:13.410Z,3.40
2019-03-25T15:16:43.519Z,3.80
2019-03-25T15:19:22.662Z,4.30
2019-03-25T15:21:52.756Z,6.20
2019-03-25T15:24:22.819Z,8.50
2019-03-25T15:26:53.933Z,9.50
2019-03-25T15:29:24.052Z,11.20
2019-03-25T15:31:54.139Z,12.00
2019-03-25T15:34:24.255Z,12.50
2019-03-25T15:37:02.849Z,11.80
2019-03-25T15:39:33.943Z,11.10
2019-03-25T15:42:04.020Z,10.90
2019-03-25T15:44:35.019Z,10.30
2019-03-25T15:47:05.145Z,10.60
2019-03-25T15:49:35.240Z,11.30
2019-03-25T15:52:09.476Z,11.80
2019-03-25T15:54:40.603Z,10.50
2019-03-25T15:57:10.687Z,8.00
2019-03-25T15:59:46.067Z,6.40
2019-03-25T16:02:17.060Z,5.40
2019-03-25T16:04:59.179Z,4.90
2019-03-25T16:07:30.199Z,4.60
2019-03-25T16:10:00.357Z,4.30
2019-03-25T16:12:48.788Z,4.20
2019-03-25T16:15:39.602Z,4.20
2019-03-25T16:18:38.323Z,4.10
2019-03-25T16:21:14.218Z,3.90
2019-03-25T16:23:44.827Z,3.30
2019-03-25T16:26:18.253Z,2.90
2019-03-25T16:28:57.240Z,2.70
2019-03-25T16:31:37.315Z,2.60
2019-03-25T16:34:07.425Z,2.50
2019-03-25T16:36:38.488Z,2.50
2019-03-25T16:39:08.711Z,2.50
2019-03-25T16:41:38.807Z,2.60
2019-03-25T16:44:09.807Z,2.70
2019-03-25T16:46:39.930Z,2.70
2019-03-25T16:49:10.947Z,2.80
2019-03-25T16:51:41.035Z,2.90
2019-03-25T16:54:18.136Z,2.90
2019-03-25T16:56:49.156Z,3.00
2019-03-25T16:59:19.227Z,3.00
2019-03-25T17:02:01.635Z,2.90
2019-03-25T17:04:31.715Z,3.00
2019-03-25T17:07:01.825Z,3.10
2019-03-25T17:09:32.936Z,3.00
2019-03-25T17:12:04.014Z,2.90
2019-03-25T17:14:35.000Z,2.90
2019-03-25T17:17:05.087Z,2.90
2019-03-25T17:19:41.091Z,2.90
2019-03-25T17:22:11.107Z,2.90
2019-03-25T17:24:41.189Z,2.90
2019-03-25T17:27:11.320Z,2.90
2019-03-25T17:29:47.460Z,2.90
2019-03-25T17:32:24.570Z,2.90
2019-03-25T17:34:55.591Z,2.90
2019-03-25T17:37:25.671Z,2.90
2019-03-25T17:39:59.791Z,2.90
2019-03-25T17:42:30.831Z,2.80
2019-03-25T17:45:00.929Z,2.80
2019-03-25T17:47:30.995Z,2.80
2019-03-25T17:50:01.079Z,2.80
2019-03-25T17:52:41.043Z,2.70
2019-03-25T17:55:11.835Z,2.60
2019-03-25T17:57:43.563Z,2.50
2019-03-25T18:00:14.535Z,2.40
2019-03-25T18:02:49.021Z,2.20
2019-03-25T18:05:20.843Z,2.10
2019-03-25T18:07:50.967Z,1.90
2019-03-25T18:10:29.996Z,1.80
2019-03-25T18:13:00.116Z,1.70
2019-03-25T18:15:30.205Z,1.70
2019-03-25T18:18:02.211Z,1.70
2019-03-25T18:20:33.299Z,1.70
2019-03-25T18:23:03.408Z,1.70
2019-03-25T18:25:33.607Z,1.80
2019-03-25T18:28:05.543Z,1.90
2019-03-25T18:30:36.751Z,2.00
2019-03-25T18:33:07.783Z,2.00
2019-03-25T18:35:38.859Z,2.10
2019-03-25T18:38:10.915Z,2.20
2019-03-25T18:40:41.948Z,2.40
2019-03-25T18:43:13.051Z,2.50
2019-03-25T18:45:43.220Z,2.50
2019-03-25T18:48:21.517Z,2.50
2019-03-25T18:50:52.043Z,2.50
2019-03-25T18:53:27.295Z,2.40
2019-03-25T18:56:02.565Z,2.30
2019-03-25T18:58:38.443Z,2.10
2019-03-25T19:01:14.491Z,2.00
2019-03-25T19:03:44.656Z,1.80
2019-03-25T19:06:14.947Z,1.80
2019-03-25T19:08:45.275Z,1.70
2019-03-25T19:11:17.223Z,1.70
2019-03-25T19:13:47.333Z,1.50
2019-03-25T19:16:22.535Z,1.40
2019-03-25T19:19:01.624Z,1.30
2019-03-25T19:21:31.705Z,1.20
2019-03-25T19:24:01.820Z,1.10
2019-03-25T19:26:44.990Z,1.00
2019-03-25T19:29:18.275Z,1.00
2019-03-25T19:31:48.344Z,0.90
2019-03-25T19:34:18.452Z,1.00
2019-03-25T19:36:48.527Z,1.10
2019-03-25T19:39:19.761Z,1.20
2019-03-25T19:41:49.861Z,1.30
2019-03-25T19:44:21.917Z,1.30
2019-03-25T19:46:52.964Z,1.40
2019-03-25T19:49:25.003Z,1.40
2019-03-25T19:51:59.751Z,1.40
2019-03-25T19:54:31.748Z,1.50
2019-03-25T19:57:03.016Z,1.60
2019-03-25T19:59:35.049Z,1.60
2019-03-25T20:02:18.343Z,1.60
2019-03-25T20:04:40.536Z,1.60
2019-03-25T20:07:11.506Z,1.70
2019-03-25T20:09:47.847Z,1.60
2019-03-25T20:12:17.921Z,1.60
2019-03-25T20:14:51.186Z,1.60
2019-03-25T20:17:31.412Z,1.60
2019-03-25T20:20:02.341Z,1.60
2019-03-25T20:22:32.451Z,1.60
2019-03-25T20:25:02.530Z,1.50
2019-03-25T20:27:35.306Z,1.40
2019-03-25T20:30:11.410Z,1.40
2019-03-25T20:32:41.575Z,1.40
2019-03-25T20:35:11.800Z,1.30
2019-03-25T20:37:44.581Z,1.30
2019-03-25T20:40:15.024Z,1.10
2019-03-25T20:42:45.155Z,1.00
2019-03-25T20:45:18.599Z,0.90
2019-03-25T20:47:50.680Z,0.90
2019-03-25T20:50:21.797Z,0.80
2019-03-25T20:52:51.891Z,0.70
2019-03-25T20:55:21.959Z,0.70
2019-03-25T20:57:52.045Z,0.60
2019-03-25T21:00:47.635Z,0.50
2019-03-25T21:03:18.919Z,0.50
2019-03-25T21:05:49.078Z,0.40
2019-03-25T21:08:19.226Z,0.40
2019-03-25T21:10:49.392Z,0.30
2019-03-25T21:13:20.495Z,0.30
2019-03-25T21:15:57.303Z,0.30
2019-03-25T21:18:34.987Z,0.30
2019-03-25T21:21:05.543Z,0.40
2019-03-25T21:23:37.110Z,0.60
2019-03-25T21:26:07.257Z,0.70
2019-03-25T21:28:45.130Z,0.70
2019-03-25T21:31:17.092Z,0.80
2019-03-25T21:33:49.453Z,0.80
2019-03-25T21:36:31.678Z,0.90
2019-03-25T21:39:05.271Z,0.90
2019-03-25T21:41:41.553Z,0.90
2019-03-25T21:44:13.579Z,0.90
2019-03-25T21:46:43.815Z,0.90
2019-03-25T21:49:13.868Z,0.90
2019-03-25T21:51:44.022Z,1.00
2019-03-25T21:54:14.208Z,1.00
2019-03-25T21:56:46.352Z,1.00
2019-03-25T21:59:18.535Z,0.90
2019-03-25T22:01:51.453Z,0.90
2019-03-25T22:04:23.559Z,0.80
2019-03-25T22:06:54.579Z,0.70
2019-03-25T22:09:34.666Z,0.60
2019-03-25T22:12:08.951Z,0.60
2019-03-25T22:14:39.047Z,0.50
2019-03-25T22:17:17.664Z,0.40
2019-03-25T22:19:50.795Z,0.40
2019-03-25T22:22:20.907Z,0.30
2019-03-25T22:25:00.011Z,0.30
2019-03-25T22:27:37.607Z,0.30
2019-03-25T22:30:09.487Z,0.30
2019-03-25T22:32:40.503Z,0.20
2019-03-25T22:35:18.659Z,0.10
2019-03-25T22:37:48.985Z,0.00
2019-03-25T22:40:19.086Z,-0.10
2019-03-25T22:42:49.173Z,-0.30
2019-03-25T22:45:28.750Z,-0.40
2019-03-25T22:47:58.939Z,-0.40
2019-03-25T22:50:36.775Z,-0.50
2019-03-25T22:53:07.934Z,-0.60
2019-03-25T22:55:38.040Z,-0.50
2019-03-25T22:58:08.200Z,-0.30
2019-03-25T23:00:40.076Z,-0.20
2019-03-25T23:05:53.613Z,-0.10
2019-03-25T23:08:31.816Z,-0.20
2019-03-25T23:11:01.896Z,-0.40
2019-03-25T23:13:32.223Z,-0.50
2019-03-25T23:16:02.308Z,-0.50
2019-03-25T23:18:34.267Z,-0.60
2019-03-25T23:21:04.433Z,-0.60
2019-03-25T23:23:37.540Z,-0.60
2019-03-25T23:26:07.617Z,-0.60
2019-03-25T23:28:37.752Z,-0.60
2019-03-25T23:31:09.737Z,-0.70
2019-03-25T23:33:51.713Z,-0.70
2019-03-25T23:36:13.490Z,-0.80
2019-03-25T23:38:46.583Z,-0.90
2019-03-25T23:41:16.686Z,-1.00
2019-03-25T23:43:47.659Z,-1.10
2019-03-25T23:46:17.780Z,-1.20
2019-03-25T23:48:48.799Z,-1.30
2019-03-25T23:51:19.841Z,-1.40
2019-03-25T23:53:52.695Z,-1.30
2019-03-25T23:56:24.772Z,-1.30
2019-03-25T23:58:56.848Z,-1.30
